createdAt,value
2023-10-18T00:02:02.253Z,29.50
2023-10-18T00:04:33.446Z,30.93
2023-10-18T00:07:02.252Z,42.13
2023-10-18T00:09:47.152Z,40.03
2023-10-18T00:12:18.020Z,41.33
2023-10-18T00:14:47.446Z,43.00
2023-10-18T00:17:18.032Z,44.77
2023-10-18T00:19:48.713Z,47.20
2023-10-18T00:22:18.083Z,47.13
2023-10-18T00:24:46.600Z,44.97
2023-10-18T00:27:18.206Z,39.17
2023-10-18T00:29:46.649Z,38.00
2023-10-18T00:32:17.579Z,35.50
2023-10-18T00:35:20.382Z,31.20
2023-10-18T00:37:51.156Z,31.50
2023-10-18T00:40:34.406Z,29.57
2023-10-18T00:43:12.941Z,29.87
2023-10-18T00:45:45.934Z,27.03
2023-10-18T00:48:17.005Z,26.70
2023-10-18T00:50:46.909Z,26.30
2023-10-18T00:53:21.985Z,26.10
2023-10-18T00:55:54.606Z,24.80
2023-10-18T00:58:25.052Z,24.03
2023-10-18T01:00:54.677Z,23.60
2023-10-18T01:03:34.031Z,24.53
2023-10-18T01:06:09.903Z,23.47
2023-10-18T01:08:39.910Z,22.80
2023-10-18T01:11:12.604Z,21.83
2023-10-18T01:13:43.425Z,22.57
2023-10-18T01:16:15.764Z,20.83
2023-10-18T01:18:49.221Z,22.33
2023-10-18T01:21:20.600Z,22.50
2023-10-18T01:23:52.648Z,21.33
2023-10-18T01:26:23.998Z,19.67
2023-10-18T01:28:54.503Z,19.60
2023-10-18T01:31:23.505Z,19.57
2023-10-18T01:33:53.219Z,19.43
2023-10-18T01:36:23.433Z,19.53
2023-10-18T01:38:54.491Z,19.40
2023-10-18T01:41:28.699Z,19.53
2023-10-18T01:44:06.535Z,18.33
2023-10-18T01:46:35.297Z,19.67
2023-10-18T01:49:06.249Z,19.50
2023-10-18T01:51:35.375Z,20.53
2023-10-18T01:54:06.760Z,21.00
2023-10-18T01:56:36.890Z,18.87
2023-10-18T01:59:09.584Z,20.40
2023-10-18T02:01:38.378Z,22.70
2023-10-18T02:04:13.038Z,22.80
2023-10-18T02:06:41.879Z,24.33
2023-10-18T02:09:11.737Z,28.50
2023-10-18T02:11:41.980Z,32.37
2023-10-18T02:14:10.813Z,27.80
2023-10-18T02:16:40.903Z,27.43
2023-10-18T02:19:09.529Z,25.80
2023-10-18T02:21:38.014Z,22.83
2023-10-18T02:24:08.321Z,21.37
2023-10-18T02:26:40.680Z,29.23
2023-10-18T02:29:13.976Z,27.13
2023-10-18T02:31:43.351Z,25.47
2023-10-18T02:34:29.159Z,22.70
2023-10-18T02:36:59.876Z,23.33
2023-10-18T02:39:34.482Z,21.37
2023-10-18T02:42:06.038Z,19.03
2023-10-18T02:44:36.851Z,20.30
2023-10-18T02:47:12.462Z,20.50
2023-10-18T02:49:40.971Z,19.10
2023-10-18T02:52:11.532Z,17.83
2023-10-18T02:54:41.310Z,18.10
2023-10-18T02:57:10.980Z,17.67
2023-10-18T02:59:42.512Z,17.93
2023-10-18T03:02:15.133Z,17.60
2023-10-18T03:04:45.018Z,18.10
2023-10-18T03:07:15.804Z,18.10
2023-10-18T03:09:51.042Z,16.87
2023-10-18T03:12:19.735Z,14.37
2023-10-18T03:14:58.767Z,15.90
2023-10-18T03:17:30.777Z,15.17
2023-10-18T03:19:59.482Z,15.80
2023-10-18T03:22:33.003Z,15.33
2023-10-18T03:25:02.350Z,15.97
2023-10-18T03:27:33.685Z,15.10
2023-10-18T03:30:18.751Z,16.63
2023-10-18T03:32:51.784Z,16.67
2023-10-18T03:35:22.272Z,15.77
2023-10-18T03:37:51.158Z,14.67
2023-10-18T03:40:28.136Z,16.00
2023-10-18T03:42:56.627Z,16.00
2023-10-18T03:45:46.562Z,14.90
2023-10-18T03:48:24.868Z,15.27
2023-10-18T03:50:56.241Z,15.83
2023-10-18T03:53:28.715Z,15.30
2023-10-18T03:55:57.804Z,15.73
2023-10-18T03:58:26.420Z,15.97
2023-10-18T04:00:58.186Z,15.67
2023-10-18T04:03:31.061Z,14.53
2023-10-18T04:06:08.972Z,14.70
2023-10-18T04:08:37.870Z,14.13
2023-10-18T04:11:07.595Z,13.53
2023-10-18T04:13:37.707Z,13.47
2023-10-18T04:16:15.265Z,15.10
2023-10-18T04:18:43.874Z,14.20
2023-10-18T04:21:16.255Z,14.33
2023-10-18T04:23:47.880Z,13.43
2023-10-18T04:26:20.479Z,13.80
2023-10-18T04:28:50.502Z,13.73
2023-10-18T04:31:23.368Z,13.10
2023-10-18T04:33:54.507Z,12.73
2023-10-18T04:36:25.139Z,11.33
2023-10-18T04:38:54.025Z,12.57
2023-10-18T04:41:28.734Z,13.20
2023-10-18T04:44:05.996Z,12.33
2023-10-18T04:46:38.510Z,12.40
2023-10-18T04:49:24.768Z,11.93
2023-10-18T04:51:55.699Z,11.73
2023-10-18T04:54:37.033Z,11.30
2023-10-18T04:57:11.806Z,12.83
2023-10-18T04:59:47.800Z,15.57
2023-10-18T05:02:19.549Z,18.30
2023-10-18T05:04:48.763Z,16.60
2023-10-18T05:07:17.252Z,15.63
2023-10-18T05:09:47.156Z,15.07
2023-10-18T05:12:30.476Z,18.53
2023-10-18T05:15:18.442Z,15.90
2023-10-18T05:17:49.487Z,12.37
2023-10-18T05:20:26.126Z,11.70
2023-10-18T05:23:00.791Z,10.70
2023-10-18T05:25:35.771Z,10.20
2023-10-18T05:28:10.971Z,10.90
2023-10-18T05:30:54.670Z,11.20
2023-10-18T05:33:53.685Z,10.10
2023-10-18T05:36:36.348Z,11.63
2023-10-18T05:39:19.901Z,11.23
2023-10-18T05:41:47.549Z,10.60
2023-10-18T05:44:16.166Z,10.30
2023-10-18T05:46:46.058Z,10.97
2023-10-18T05:49:27.542Z,10.97
2023-10-18T05:52:17.658Z,11.10
2023-10-18T05:54:47.335Z,10.20
2023-10-18T05:57:22.534Z,10.30
2023-10-18T05:59:51.477Z,10.53
2023-10-18T06:02:25.648Z,11.23
2023-10-18T06:04:57.443Z,11.07
2023-10-18T06:07:28.230Z,11.80
2023-10-18T06:10:02.292Z,12.13
2023-10-18T06:12:32.156Z,11.20
2023-10-18T06:15:16.525Z,11.17
2023-10-18T06:17:49.442Z,11.17
2023-10-18T06:20:28.852Z,11.77
2023-10-18T06:23:10.470Z,14.57
2023-10-18T06:25:46.428Z,15.03
2023-10-18T06:28:22.176Z,15.20
2023-10-18T06:30:53.091Z,13.70
2023-10-18T06:33:22.874Z,13.87
2023-10-18T06:35:54.252Z,14.27
2023-10-18T06:38:24.734Z,12.67
2023-10-18T06:41:05.645Z,12.90
2023-10-18T06:43:35.123Z,13.63
2023-10-18T06:46:06.140Z,12.97
2023-10-18T06:48:35.076Z,14.00
2023-10-18T06:51:20.145Z,13.73
2023-10-18T06:53:52.009Z,13.70
2023-10-18T06:56:22.225Z,14.50
2023-10-18T06:58:51.181Z,14.30
2023-10-18T07:01:32.391Z,14.37
2023-10-18T07:04:01.932Z,13.50
2023-10-18T07:06:36.969Z,14.23
2023-10-18T07:09:17.633Z,13.30
2023-10-18T07:11:52.539Z,12.60
2023-10-18T07:14:21.725Z,14.17
2023-10-18T07:16:51.150Z,15.47
2023-10-18T07:19:28.979Z,15.13
2023-10-18T07:21:59.992Z,14.67
2023-10-18T07:24:35.873Z,15.40
2023-10-18T07:27:10.043Z,15.60
2023-10-18T07:29:38.899Z,15.50
2023-10-18T07:32:14.529Z,14.73
2023-10-18T07:34:44.455Z,14.50
2023-10-18T07:37:21.245Z,15.67
2023-10-18T07:39:58.141Z,15.23
2023-10-18T07:42:28.222Z,15.47
2023-10-18T07:45:04.793Z,14.77
2023-10-18T07:47:39.453Z,13.77
2023-10-18T07:50:30.157Z,13.97
2023-10-18T07:53:01.565Z,14.17
2023-10-18T07:55:38.395Z,13.77
2023-10-18T07:58:19.091Z,13.70
2023-10-18T08:01:14.396Z,13.00
2023-10-18T08:03:44.394Z,14.37
2023-10-18T08:06:27.521Z,14.73
2023-10-18T08:08:59.274Z,14.80
2023-10-18T08:11:27.804Z,14.70
2023-10-18T08:13:56.288Z,16.77
2023-10-18T08:16:29.405Z,16.10
2023-10-18T08:19:01.077Z,16.90
2023-10-18T08:21:30.043Z,16.73
2023-10-18T08:24:08.798Z,17.13
2023-10-18T08:26:47.805Z,17.03
2023-10-18T08:29:17.055Z,30.03
2023-10-18T08:31:49.936Z,135.90
2023-10-18T08:34:19.698Z,61.80
2023-10-18T08:36:52.351Z,23.70
2023-10-18T08:39:27.294Z,19.83
2023-10-18T08:42:03.766Z,19.77
2023-10-18T08:44:34.158Z,18.67
2023-10-18T08:47:15.906Z,20.43
2023-10-18T08:49:51.782Z,22.30
2023-10-18T08:52:25.127Z,20.43
2023-10-18T08:54:57.554Z,21.97
2023-10-18T08:57:36.207Z,21.43
2023-10-18T09:00:21.401Z,20.40
2023-10-18T09:02:52.283Z,19.57
2023-10-18T09:05:24.138Z,20.63
2023-10-18T09:07:54.588Z,20.33
2023-10-18T09:10:35.433Z,20.57
2023-10-18T09:13:24.632Z,20.17
2023-10-18T09:16:01.313Z,20.60
2023-10-18T09:18:32.896Z,20.13
2023-10-18T09:21:09.596Z,18.67
2023-10-18T09:23:38.473Z,17.50
2023-10-18T09:26:12.644Z,17.37
2023-10-18T09:28:44.014Z,15.53
2023-10-18T09:31:20.145Z,15.73
2023-10-18T09:33:58.132Z,15.40
2023-10-18T09:36:27.028Z,14.73
2023-10-18T09:38:57.358Z,14.93
2023-10-18T09:41:32.873Z,13.70
2023-10-18T09:44:03.597Z,12.53
2023-10-18T09:46:32.857Z,12.40
2023-10-18T09:49:06.035Z,11.50
2023-10-18T09:51:37.429Z,11.57
2023-10-18T09:54:08.708Z,12.07
2023-10-18T09:56:41.605Z,9.50
2023-10-18T09:59:15.176Z,10.80
2023-10-18T10:02:01.361Z,10.00
2023-10-18T10:04:34.738Z,10.30
2023-10-18T10:07:22.830Z,8.77
2023-10-18T10:09:52.774Z,9.23
2023-10-18T10:12:29.183Z,8.40
2023-10-18T10:15:00.206Z,9.17
2023-10-18T10:17:31.581Z,8.60
2023-10-18T10:20:12.071Z,9.07
2023-10-18T10:22:42.872Z,7.80
2023-10-18T10:25:27.593Z,6.73
2023-10-18T10:28:40.094Z,6.63
2023-10-18T10:31:22.890Z,5.67
2023-10-18T10:34:08.200Z,6.27
2023-10-18T10:36:40.221Z,5.50
2023-10-18T10:39:14.277Z,6.40
2023-10-18T10:41:43.016Z,5.70
2023-10-18T10:44:22.820Z,4.93
2023-10-18T10:46:55.143Z,5.27
2023-10-18T10:49:49.283Z,5.07
2023-10-18T10:52:21.178Z,5.87
2023-10-18T10:54:54.862Z,5.73
2023-10-18T10:57:24.641Z,5.57
2023-10-18T10:59:57.122Z,5.50
2023-10-18T11:02:41.923Z,5.50
2023-10-18T11:05:17.859Z,7.23
2023-10-18T11:07:46.531Z,6.17
2023-10-18T11:10:18.302Z,6.10
2023-10-18T11:12:49.081Z,5.17
2023-10-18T11:15:19.478Z,4.50
2023-10-18T11:17:50.134Z,4.50
2023-10-18T11:20:23.173Z,4.53
2023-10-18T11:22:52.722Z,4.87
2023-10-18T11:25:32.008Z,4.80
2023-10-18T11:28:22.354Z,4.00
2023-10-18T11:30:55.387Z,4.17
2023-10-18T11:33:48.500Z,4.33
2023-10-18T11:36:21.122Z,4.57
2023-10-18T11:39:03.446Z,4.77
2023-10-18T11:41:38.941Z,4.23
2023-10-18T11:44:09.402Z,4.43
2023-10-18T11:46:51.391Z,4.30
2023-10-18T11:49:21.789Z,4.20
2023-10-18T11:51:53.138Z,3.93
2023-10-18T11:54:32.064Z,4.57
2023-10-18T11:57:01.634Z,4.10
2023-10-18T11:59:31.352Z,3.87
2023-10-18T12:02:06.069Z,4.23
2023-10-18T12:04:40.335Z,3.87
2023-10-18T12:07:10.185Z,4.23
2023-10-18T12:09:46.383Z,4.17
2023-10-18T12:12:29.109Z,4.17
2023-10-18T12:14:57.768Z,4.20
2023-10-18T12:17:27.742Z,3.73
2023-10-18T12:19:56.690Z,3.60
2023-10-18T12:22:25.450Z,3.47
2023-10-18T12:24:54.196Z,3.73
2023-10-18T12:27:35.429Z,3.77
2023-10-18T12:30:24.740Z,4.20
2023-10-18T12:33:06.208Z,3.83
2023-10-18T12:35:35.337Z,3.40
2023-10-18T12:38:14.413Z,3.37
2023-10-18T12:40:52.945Z,3.20
2023-10-18T12:43:23.187Z,3.43
2023-10-18T12:45:53.125Z,3.80
2023-10-18T12:48:28.947Z,4.07
2023-10-18T12:50:57.951Z,3.47
2023-10-18T12:53:43.546Z,3.70
2023-10-18T12:56:24.987Z,3.40
2023-10-18T12:58:59.758Z,3.20
2023-10-18T13:01:33.596Z,3.07
2023-10-18T13:04:08.241Z,4.30
2023-10-18T13:06:37.238Z,4.20
2023-10-18T13:09:20.086Z,3.50
2023-10-18T13:11:55.938Z,3.43
2023-10-18T13:14:31.940Z,4.57
2023-10-18T13:17:04.010Z,4.73
2023-10-18T13:19:34.406Z,3.53
2023-10-18T13:22:05.857Z,3.20
2023-10-18T13:24:34.846Z,3.07
2023-10-18T13:27:05.015Z,3.33
2023-10-18T13:29:33.672Z,3.63
2023-10-18T13:32:08.322Z,3.43
2023-10-18T13:34:41.247Z,3.00
2023-10-18T13:37:14.346Z,3.97
2023-10-18T13:39:49.430Z,2.53
2023-10-18T13:42:20.698Z,4.53
2023-10-18T13:44:50.235Z,3.60
2023-10-18T13:47:20.353Z,3.60
2023-10-18T13:49:50.387Z,4.07
2023-10-18T13:52:18.991Z,3.30
2023-10-18T13:54:47.687Z,3.17
2023-10-18T13:57:18.702Z,3.57
2023-10-18T13:59:47.172Z,3.33
2023-10-18T14:02:19.423Z,4.20
2023-10-18T14:04:50.285Z,3.60
2023-10-18T14:07:20.145Z,3.50
2023-10-18T14:09:49.156Z,3.07
2023-10-18T14:12:18.537Z,3.20
2023-10-18T14:14:49.168Z,3.80
2023-10-18T14:17:22.328Z,3.43
2023-10-18T14:20:01.462Z,3.77
2023-10-18T14:22:37.326Z,3.40
2023-10-18T14:25:11.376Z,4.77
2023-10-18T14:27:41.805Z,3.80
2023-10-18T14:30:13.704Z,2.90
2023-10-18T14:32:44.279Z,2.73
2023-10-18T14:35:18.401Z,3.10
2023-10-18T14:37:47.476Z,3.43
2023-10-18T14:40:16.382Z,3.03
2023-10-18T14:42:46.451Z,3.50
2023-10-18T14:45:15.974Z,3.40
2023-10-18T14:47:44.549Z,2.80
2023-10-18T14:50:16.442Z,3.50
2023-10-18T14:52:45.472Z,3.70
2023-10-18T14:55:14.158Z,5.63
2023-10-18T14:57:43.401Z,4.63
2023-10-18T15:00:13.495Z,7.13
2023-10-18T15:02:42.040Z,7.47
2023-10-18T15:05:11.048Z,6.43
2023-10-18T15:07:40.929Z,5.30
2023-10-18T15:10:09.142Z,4.50
2023-10-18T15:12:39.824Z,4.60
2023-10-18T15:15:10.512Z,4.30
2023-10-18T15:17:40.261Z,4.40
2023-10-18T15:20:10.208Z,9.13
2023-10-18T15:22:38.844Z,22.93
2023-10-18T15:25:10.714Z,30.67
2023-10-18T15:27:39.120Z,24.07
2023-10-18T15:30:10.611Z,20.67
2023-10-18T15:32:39.060Z,18.27
2023-10-18T15:35:08.785Z,17.33
2023-10-18T15:37:37.292Z,16.40
2023-10-18T15:40:06.498Z,18.73
2023-10-18T15:42:38.827Z,20.53
2023-10-18T15:45:14.570Z,17.47
2023-10-18T15:47:43.098Z,17.67
2023-10-18T15:50:14.556Z,26.27
2023-10-18T15:52:43.036Z,38.70
2023-10-18T15:55:15.978Z,38.80
2023-10-18T15:57:45.960Z,28.07
2023-10-18T16:00:25.765Z,22.73
2023-10-18T16:02:58.096Z,21.03
2023-10-18T16:05:29.887Z,18.00
2023-10-18T16:07:58.701Z,15.70
2023-10-18T16:10:27.211Z,15.47
2023-10-18T16:12:57.022Z,17.37
2023-10-18T16:15:26.263Z,32.47
2023-10-18T16:17:55.137Z,29.27
2023-10-18T16:20:25.793Z,25.30
2023-10-18T16:22:54.418Z,26.23
2023-10-18T16:25:22.779Z,25.33
2023-10-18T16:27:51.278Z,23.30
2023-10-18T16:30:22.536Z,21.70
2023-10-18T16:32:51.040Z,22.00
2023-10-18T16:35:19.662Z,19.57
2023-10-18T16:37:48.359Z,16.13
2023-10-18T16:40:19.987Z,16.43
2023-10-18T16:42:49.297Z,14.87
2023-10-18T16:45:18.179Z,14.17
2023-10-18T16:47:48.585Z,13.00
2023-10-18T16:50:18.374Z,14.63
2023-10-18T16:52:46.930Z,14.47
2023-10-18T16:55:19.298Z,15.73
2023-10-18T16:57:52.507Z,15.97
2023-10-18T17:00:21.060Z,16.67
2023-10-18T17:02:54.865Z,17.53
2023-10-18T17:05:25.459Z,20.57
2023-10-18T17:08:00.585Z,20.60
2023-10-18T17:10:38.347Z,20.93
2023-10-18T17:13:06.992Z,19.87
2023-10-18T17:15:37.775Z,18.27
2023-10-18T17:18:10.510Z,17.40
2023-10-18T17:20:39.053Z,19.73
2023-10-18T17:23:07.571Z,21.60
2023-10-18T17:25:37.218Z,21.93
2023-10-18T17:28:09.217Z,19.83
2023-10-18T17:30:38.724Z,18.97
2023-10-18T17:33:10.208Z,18.30
2023-10-18T17:35:43.370Z,17.57
2023-10-18T17:38:14.484Z,18.33
2023-10-18T17:40:44.825Z,18.07
2023-10-18T17:43:16.482Z,16.87
2023-10-18T17:45:47.624Z,18.00
2023-10-18T17:48:17.897Z,15.43
2023-10-18T17:50:47.781Z,16.07
2023-10-18T17:53:16.785Z,16.27
2023-10-18T17:55:46.197Z,17.10
2023-10-18T17:58:19.038Z,16.30
2023-10-18T18:00:54.160Z,17.40
2023-10-18T18:03:25.318Z,17.23
2023-10-18T18:05:53.784Z,18.47
2023-10-18T18:08:26.994Z,19.87
2023-10-18T18:10:56.230Z,26.43
2023-10-18T18:13:24.931Z,41.63
2023-10-18T18:15:55.461Z,39.07
2023-10-18T18:18:25.752Z,29.17
2023-10-18T18:20:55.881Z,22.80
2023-10-18T18:23:25.962Z,20.20
2023-10-18T18:25:57.349Z,19.67
2023-10-18T18:28:28.146Z,21.57
2023-10-18T18:30:56.872Z,22.63
2023-10-18T18:33:27.770Z,30.23
2023-10-18T18:35:59.191Z,31.93
2023-10-18T18:38:27.828Z,23.73
2023-10-18T18:40:59.140Z,23.30
2023-10-18T18:43:29.078Z,25.97
2023-10-18T18:46:01.607Z,27.70
2023-10-18T18:48:31.784Z,22.67
2023-10-18T18:51:00.434Z,21.83
2023-10-18T18:53:29.787Z,19.00
2023-10-18T18:55:58.167Z,17.87
2023-10-18T18:58:26.528Z,19.47
2023-10-18T19:00:55.289Z,16.77
2023-10-18T19:03:23.802Z,19.20
2023-10-18T19:05:53.735Z,21.20
2023-10-18T19:08:22.122Z,22.50
2023-10-18T19:10:50.704Z,22.40
2023-10-18T19:13:19.136Z,39.93
2023-10-18T19:15:47.469Z,48.17
2023-10-18T19:18:16.012Z,32.77
2023-10-18T19:20:45.277Z,410.73
2023-10-18T19:23:15.240Z,137.17
2023-10-18T19:25:43.722Z,166.83
2023-10-18T19:28:12.142Z,149.03
2023-10-18T19:30:40.933Z,67.40
2023-10-18T19:33:10.901Z,22.97
2023-10-18T19:35:41.913Z,16.87
2023-10-18T19:38:10.672Z,259.40
2023-10-18T19:40:40.519Z,241.93
2023-10-18T19:43:09.286Z,230.00
2023-10-18T19:45:37.757Z,48.90
2023-10-18T19:48:07.317Z,20.57
2023-10-18T19:50:39.846Z,17.50
2023-10-18T19:53:08.417Z,32.33
2023-10-18T19:55:37.956Z,258.97
2023-10-18T19:58:08.121Z,235.17
2023-10-18T20:00:39.460Z,82.60
2023-10-18T20:03:08.181Z,29.73
2023-10-18T20:05:38.243Z,17.73
2023-10-18T20:08:07.478Z,14.47
2023-10-18T20:10:37.512Z,15.43
2023-10-18T20:13:08.825Z,15.13
2023-10-18T20:15:38.090Z,14.67
2023-10-18T20:18:07.370Z,14.57
2023-10-18T20:20:35.946Z,15.00
2023-10-18T20:23:07.334Z,13.70
2023-10-18T20:25:37.099Z,13.83
2023-10-18T20:28:08.034Z,15.10
2023-10-18T20:30:36.719Z,13.63
2023-10-18T20:33:06.264Z,15.37
2023-10-18T20:35:34.764Z,15.20
2023-10-18T20:38:03.226Z,15.50
2023-10-18T20:40:31.932Z,16.30
2023-10-18T20:43:00.469Z,15.30
2023-10-18T20:45:37.810Z,15.00
2023-10-18T20:48:09.620Z,15.87
2023-10-18T20:50:38.463Z,15.80
2023-10-18T20:53:07.189Z,14.67
2023-10-18T20:55:36.114Z,14.17
2023-10-18T20:58:09.366Z,15.33
2023-10-18T21:00:41.903Z,16.10
2023-10-18T21:03:12.179Z,14.37
2023-10-18T21:05:42.118Z,14.93
2023-10-18T21:08:13.494Z,15.00
2023-10-18T21:10:42.070Z,16.33
2023-10-18T21:13:10.734Z,17.80
2023-10-18T21:15:43.596Z,15.90
2023-10-18T21:18:12.377Z,15.57
2023-10-18T21:20:41.090Z,16.50
2023-10-18T21:23:09.997Z,18.83
2023-10-18T21:25:40.393Z,20.07
2023-10-18T21:28:12.399Z,17.17
2023-10-18T21:30:42.348Z,16.80
2023-10-18T21:33:11.084Z,16.23
2023-10-18T21:35:39.537Z,15.87
2023-10-18T21:38:09.219Z,12.77
2023-10-18T21:40:37.884Z,11.67
2023-10-18T21:43:08.480Z,11.60
2023-10-18T21:45:36.960Z,11.63
2023-10-18T21:48:08.435Z,12.40
2023-10-18T21:50:37.095Z,12.57
2023-10-18T21:53:06.703Z,12.63
2023-10-18T21:55:35.161Z,13.17
2023-10-18T21:58:03.680Z,13.37
2023-10-18T22:00:40.617Z,12.33
2023-10-18T22:03:12.701Z,12.77
2023-10-18T22:05:43.829Z,12.93
2023-10-18T22:08:16.918Z,14.10
2023-10-18T22:10:46.695Z,14.03
2023-10-18T22:13:15.695Z,16.23
2023-10-18T22:15:58.478Z,16.00
2023-10-18T22:18:30.127Z,16.07
2023-10-18T22:21:01.325Z,14.17
2023-10-18T22:23:35.884Z,13.63
2023-10-18T22:28:37.917Z,13.33
2023-10-18T22:31:07.872Z,13.50
2023-10-18T22:33:38.536Z,13.30
2023-10-18T22:36:09.324Z,12.73
2023-10-18T22:38:41.721Z,14.40
2023-10-18T22:41:15.394Z,15.23
2023-10-18T22:43:43.822Z,14.13
2023-10-18T22:46:34.464Z,14.70
2023-10-18T22:49:10.327Z,13.83
2023-10-18T22:51:46.206Z,14.20
2023-10-18T22:54:15.469Z,12.83
2023-10-18T22:56:55.418Z,13.97
2023-10-18T22:59:24.198Z,15.30
2023-10-18T23:01:54.175Z,16.73
2023-10-18T23:04:26.062Z,17.17
2023-10-18T23:06:58.692Z,16.70
2023-10-18T23:09:28.050Z,16.70
2023-10-18T23:11:59.229Z,16.50
2023-10-18T23:14:29.357Z,17.47
2023-10-18T23:17:12.517Z,17.50
2023-10-18T23:19:46.165Z,17.23
2023-10-18T23:22:21.430Z,17.50
2023-10-18T23:24:50.452Z,16.80
2023-10-18T23:27:48.104Z,17.63
2023-10-18T23:30:31.516Z,16.30
2023-10-18T23:33:02.243Z,17.47
2023-10-18T23:35:34.350Z,19.67
2023-10-18T23:38:19.105Z,19.70
2023-10-18T23:41:08.344Z,16.40
2023-10-18T23:43:48.350Z,15.87
2023-10-18T23:46:37.308Z,15.40
2023-10-18T23:49:23.074Z,15.37
2023-10-18T23:52:10.339Z,15.53
2023-10-18T23:54:38.801Z,14.60
2023-10-18T23:57:11.932Z,15.20
2023-10-18T23:59:42.562Z,15.50
